sensor_id;sensor_type;location;lat;lon;timestamp;pressure;altitude;pressure_sealevel;temperature;humidity
14790;BME280;7486;51.010;10.366;2023-04-29T00:01:41;97790.69;;;10.00;83.99
14790;BME280;7486;51.010;10.366;2023-04-29T00:04:27;97790.28;;;9.97;83.41
14790;BME280;7486;51.010;10.366;2023-04-29T00:07:12;97791.13;;;9.91;83.22
14790;BME280;7486;51.010;10.366;2023-04-29T00:09:58;97784.25;;;9.83;83.26
14790;BME280;7486;51.010;10.366;2023-04-29T00:12:43;97788.97;;;9.81;82.90
14790;BME280;7486;51.010;10.366;2023-04-29T00:15:29;97788.81;;;9.69;82.97
14790;BME280;7486;51.010;10.366;2023-04-29T00:18:14;97794.13;;;9.63;83.41
14790;BME280;7486;51.010;10.366;2023-04-29T00:20:59;97777.50;;;9.49;83.96
14790;BME280;7486;51.010;10.366;2023-04-29T00:23:45;97797.00;;;9.61;83.62
14790;BME280;7486;51.010;10.366;2023-04-29T00:26:30;97798.03;;;9.54;84.52
14790;BME280;7486;51.010;10.366;2023-04-29T00:29:15;97805.56;;;9.50;84.55
14790;BME280;7486;51.010;10.366;2023-04-29T00:32:01;97801.28;;;9.49;84.67
14790;BME280;7486;51.010;10.366;2023-04-29T00:34:46;97781.19;;;9.48;84.26
14790;BME280;7486;51.010;10.366;2023-04-29T00:37:31;97796.81;;;9.50;84.24
14790;BME280;7486;51.010;10.366;2023-04-29T00:40:17;97745.09;;;9.09;84.51
14790;BME280;7486;51.010;10.366;2023-04-29T00:43:02;97800.94;;;9.39;84.46
14790;BME280;7486;51.010;10.366;2023-04-29T00:45:49;97803.78;;;9.44;84.52
14790;BME280;7486;51.010;10.366;2023-04-29T00:48:35;97803.31;;;9.54;84.19
14790;BME280;7486;51.010;10.366;2023-04-29T00:51:21;97799.88;;;9.53;83.66
14790;BME280;7486;51.010;10.366;2023-04-29T00:54:07;97803.91;;;9.56;83.30
14790;BME280;7486;51.010;10.366;2023-04-29T00:56:53;97808.81;;;9.52;83.18
14790;BME280;7486;51.010;10.366;2023-04-29T00:59:40;97813.72;;;9.42;83.30
14790;BME280;7486;51.010;10.366;2023-04-29T01:02:25;97809.63;;;9.53;83.31
14790;BME280;7486;51.010;10.366;2023-04-29T01:05:11;97805.53;;;9.63;82.45
14790;BME280;7486;51.010;10.366;2023-04-29T01:08:26;97800.88;;;9.52;82.18
14790;BME280;7486;51.010;10.366;2023-04-29T01:11:18;97759.66;;;9.32;82.27
14790;BME280;7486;51.010;10.366;2023-04-29T01:14:07;97815.66;;;9.66;81.83
14790;BME280;7486;51.010;10.366;2023-04-29T01:16:58;97819.53;;;9.70;81.27
14790;BME280;7486;51.010;10.366;2023-04-29T01:19:47;97816.50;;;9.60;81.24
14790;BME280;7486;51.010;10.366;2023-04-29T01:22:34;97809.84;;;9.32;81.86
14790;BME280;7486;51.010;10.366;2023-04-29T01:25:20;97812.50;;;9.32;82.74
14790;BME280;7486;51.010;10.366;2023-04-29T01:31:50;97784.91;;;9.28;81.89
14790;BME280;7486;51.010;10.366;2023-04-29T01:34:46;97794.81;;;9.32;82.22
14790;BME280;7486;51.010;10.366;2023-04-29T01:37:51;97800.91;;;9.46;81.65
14790;BME280;7486;51.010;10.366;2023-04-29T01:40:49;97776.97;;;9.28;81.14
14790;BME280;7486;51.010;10.366;2023-04-29T01:43:40;97800.50;;;9.42;81.54
14790;BME280;7486;51.010;10.366;2023-04-29T01:46:38;97793.78;;;9.46;81.19
14790;BME280;7486;51.010;10.366;2023-04-29T01:49:28;97815.28;;;9.63;81.14
14790;BME280;7486;51.010;10.366;2023-04-29T01:52:14;97822.81;;;9.59;81.17
14790;BME280;7486;51.010;10.366;2023-04-29T01:55:07;97820.78;;;9.61;80.84
14790;BME280;7486;51.010;10.366;2023-04-29T01:58:00;97816.09;;;9.63;80.67
14790;BME280;7486;51.010;10.366;2023-04-29T02:01:03;97808.81;;;9.52;80.85
14790;BME280;7486;51.010;10.366;2023-04-29T02:03:50;97823.06;;;9.51;81.00
14790;BME280;7486;51.010;10.366;2023-04-29T02:06:36;97816.56;;;9.47;80.97
14790;BME280;7486;51.010;10.366;2023-04-29T02:09:22;97812.69;;;9.50;81.31
14790;BME280;7486;51.010;10.366;2023-04-29T02:12:12;97818.19;;;9.48;81.09
14790;BME280;7486;51.010;10.366;2023-04-29T02:14:57;97755.22;;;9.19;80.96
14790;BME280;7486;51.010;10.366;2023-04-29T02:17:42;97805.53;;;9.57;80.65
14790;BME280;7486;51.010;10.366;2023-04-29T02:20:28;97811.66;;;9.57;80.52
14790;BME280;7486;51.010;10.366;2023-04-29T02:23:13;97819.00;;;9.55;80.09
14790;BME280;7486;51.010;10.366;2023-04-29T02:25:59;97796.25;;;9.41;80.44
14790;BME280;7486;51.010;10.366;2023-04-29T02:28:45;97817.59;;;9.33;81.68
14790;BME280;7486;51.010;10.366;2023-04-29T02:31:30;97826.53;;;9.39;81.50
14790;BME280;7486;51.010;10.366;2023-04-29T02:34:16;97819.41;;;9.33;81.43
14790;BME280;7486;51.010;10.366;2023-04-29T02:37:01;97829.59;;;9.29;82.09
14790;BME280;7486;51.010;10.366;2023-04-29T02:39:47;97835.50;;;9.31;81.80
14790;BME280;7486;51.010;10.366;2023-04-29T02:42:32;97827.59;;;9.38;81.76
14790;BME280;7486;51.010;10.366;2023-04-29T02:45:18;97804.41;;;9.20;81.46
14790;BME280;7486;51.010;10.366;2023-04-29T02:48:04;97830.00;;;9.39;81.62
14790;BME280;7486;51.010;10.366;2023-04-29T02:50:50;97827.97;;;9.41;81.31
14790;BME280;7486;51.010;10.366;2023-04-29T02:53:36;97821.88;;;9.41;81.42
14790;BME280;7486;51.010;10.366;2023-04-29T02:56:21;97826.34;;;9.40;81.00
14790;BME280;7486;51.010;10.366;2023-04-29T02:59:06;97835.28;;;9.26;82.30
14790;BME280;7486;51.010;10.366;2023-04-29T03:01:52;97832.06;;;9.17;82.85
14790;BME280;7486;51.010;10.366;2023-04-29T03:04:37;97841.59;;;9.18;82.76
14790;BME280;7486;51.010;10.366;2023-04-29T03:07:22;97842.63;;;9.24;82.83
14790;BME280;7486;51.010;10.366;2023-04-29T03:10:09;97838.16;;;9.18;82.48
14790;BME280;7486;51.010;10.366;2023-04-29T03:12:55;97840.03;;;8.85;84.88
14790;BME280;7486;51.010;10.366;2023-04-29T03:15:40;97844.09;;;8.94;85.06
14790;BME280;7486;51.010;10.366;2023-04-29T03:18:25;97813.03;;;8.76;85.08
14790;BME280;7486;51.010;10.366;2023-04-29T03:21:11;97838.00;;;9.00;84.75
14790;BME280;7486;51.010;10.366;2023-04-29T03:23:56;97831.28;;;9.04;84.17
14790;BME280;7486;51.010;10.366;2023-04-29T03:26:47;97779.72;;;8.75;83.79
14790;BME280;7486;51.010;10.366;2023-04-29T03:29:33;97838.16;;;9.18;83.55
14790;BME280;7486;51.010;10.366;2023-04-29T03:32:18;97840.41;;;9.01;84.12
14790;BME280;7486;51.010;10.366;2023-04-29T03:35:04;97840.63;;;9.06;84.43
14790;BME280;7486;51.010;10.366;2023-04-29T03:37:56;97843.84;;;9.08;84.21
14790;BME280;7486;51.010;10.366;2023-04-29T03:40:46;97843.25;;;9.06;84.42
14790;BME280;7486;51.010;10.366;2023-04-29T03:43:33;97839.00;;;9.05;84.44
14790;BME280;7486;51.010;10.366;2023-04-29T03:46:19;97842.66;;;8.91;85.23
14790;BME280;7486;51.010;10.366;2023-04-29T03:49:04;97843.06;;;8.75;86.45
14790;BME280;7486;51.010;10.366;2023-04-29T03:51:50;97790.28;;;8.49;86.78
14790;BME280;7486;51.010;10.366;2023-04-29T03:54:35;97844.88;;;9.01;85.88
14790;BME280;7486;51.010;10.366;2023-04-29T03:57:20;97849.56;;;8.99;85.94
14790;BME280;7486;51.010;10.366;2023-04-29T04:00:07;97843.88;;;8.95;85.76
14790;BME280;7486;51.010;10.366;2023-04-29T04:03:02;97850.97;;;9.08;85.67
14790;BME280;7486;51.010;10.366;2023-04-29T04:05:51;97851.38;;;9.05;85.01
14790;BME280;7486;51.010;10.366;2023-04-29T04:08:36;97812.22;;;8.76;84.94
14790;BME280;7486;51.010;10.366;2023-04-29T04:11:27;97862.19;;;8.90;86.25
14790;BME280;7486;51.010;10.366;2023-04-29T04:14:19;97866.81;;;9.08;85.53
14790;BME280;7486;51.010;10.366;2023-04-29T04:17:04;97872.31;;;9.06;85.05
14790;BME280;7486;51.010;10.366;2023-04-29T04:19:50;97859.31;;;8.98;85.40
14790;BME280;7486;51.010;10.366;2023-04-29T04:22:37;97883.28;;;9.16;84.93
14790;BME280;7486;51.010;10.366;2023-04-29T04:25:48;97884.09;;;9.23;84.28
14790;BME280;7486;51.010;10.366;2023-04-29T04:28:53;97892.03;;;9.17;83.69
14790;BME280;7486;51.010;10.366;2023-04-29T04:32:17;97893.06;;;9.03;84.82
14790;BME280;7486;51.010;10.366;2023-04-29T04:35:03;97898.53;;;9.01;84.99
14790;BME280;7486;51.010;10.366;2023-04-29T04:37:48;97890.41;;;9.09;84.88
14790;BME280;7486;51.010;10.366;2023-04-29T04:40:34;97891.81;;;8.99;84.81
14790;BME280;7486;51.010;10.366;2023-04-29T04:43:40;97912.56;;;8.95;85.08
14790;BME280;7486;51.010;10.366;2023-04-29T04:46:33;97908.09;;;8.89;85.93
14790;BME280;7486;51.010;10.366;2023-04-29T04:49:28;97909.09;;;8.75;85.41
14790;BME280;7486;51.010;10.366;2023-04-29T04:52:14;97924.13;;;8.75;85.63
14790;BME280;7486;51.010;10.366;2023-04-29T04:55:02;97916.59;;;8.65;86.99
14790;BME280;7486;51.010;10.366;2023-04-29T04:57:50;97922.72;;;8.85;85.78
14790;BME280;7486;51.010;10.366;2023-04-29T05:00:35;97919.47;;;8.77;85.86
14790;BME280;7486;51.010;10.366;2023-04-29T05:03:20;97915.78;;;8.64;84.99
14790;BME280;7486;51.010;10.366;2023-04-29T05:06:07;97924.66;;;8.37;86.87
14790;BME280;7486;51.010;10.366;2023-04-29T05:08:52;97925.06;;;8.34;86.92
14790;BME280;7486;51.010;10.366;2023-04-29T05:11:37;97863.97;;;7.83;86.81
14790;BME280;7486;51.010;10.366;2023-04-29T05:14:27;97936.03;;;8.38;86.38
14790;BME280;7486;51.010;10.366;2023-04-29T05:17:13;97902.22;;;8.07;86.17
14790;BME280;7486;51.010;10.366;2023-04-29T05:19:59;97937.03;;;8.43;85.74
14790;BME280;7486;51.010;10.366;2023-04-29T05:22:44;97939.53;;;8.64;85.05
14790;BME280;7486;51.010;10.366;2023-04-29T05:25:30;97894.38;;;8.33;83.80
14790;BME280;7486;51.010;10.366;2023-04-29T05:28:16;97945.56;;;8.39;84.80
14790;BME280;7486;51.010;10.366;2023-04-29T05:31:02;97947.84;;;8.61;84.32
14790;BME280;7486;51.010;10.366;2023-04-29T05:33:48;97945.03;;;8.63;82.93
14790;BME280;7486;51.010;10.366;2023-04-29T05:36:33;97953.50;;;8.45;84.49
14790;BME280;7486;51.010;10.366;2023-04-29T05:39:19;97951.00;;;8.24;85.29
14790;BME280;7486;51.010;10.366;2023-04-29T05:42:13;97959.47;;;8.13;85.85
14790;BME280;7486;51.010;10.366;2023-04-29T05:45:03;97957.66;;;8.13;86.06
14790;BME280;7486;51.010;10.366;2023-04-29T05:47:49;97963.19;;;8.25;85.70
14790;BME280;7486;51.010;10.366;2023-04-29T05:50:35;97968.28;;;8.33;85.25
14790;BME280;7486;51.010;10.366;2023-04-29T05:53:23;97975.50;;;8.11;87.05
14790;BME280;7486;51.010;10.366;2023-04-29T05:56:08;97980.50;;;8.00;88.07
14790;BME280;7486;51.010;10.366;2023-04-29T05:58:54;97970.66;;;8.15;86.90
14790;BME280;7486;51.010;10.366;2023-04-29T06:01:40;97936.94;;;8.10;85.76
14790;BME280;7486;51.010;10.366;2023-04-29T06:04:26;97989.16;;;8.22;86.38
14790;BME280;7486;51.010;10.366;2023-04-29T06:07:31;97981.41;;;8.20;86.54
14790;BME280;7486;51.010;10.366;2023-04-29T06:10:18;97992.88;;;8.40;85.78
14790;BME280;7486;51.010;10.366;2023-04-29T06:13:04;97998.59;;;8.50;85.19
14790;BME280;7486;51.010;10.366;2023-04-29T06:15:49;98002.53;;;8.20;86.85
14790;BME280;7486;51.010;10.366;2023-04-29T06:18:35;97987.91;;;8.17;85.81
14790;BME280;7486;51.010;10.366;2023-04-29T06:21:20;98009.03;;;8.17;86.25
14790;BME280;7486;51.010;10.366;2023-04-29T06:24:05;98021.97;;;8.12;86.25
14790;BME280;7486;51.010;10.366;2023-04-29T06:26:51;98021.09;;;8.05;86.95
14790;BME280;7486;51.010;10.366;2023-04-29T06:29:36;97994.53;;;7.73;87.57
14790;BME280;7486;51.010;10.366;2023-04-29T06:32:21;98034.84;;;7.94;88.29
14790;BME280;7486;51.010;10.366;2023-04-29T06:35:07;98036.63;;;8.15;86.90
14790;BME280;7486;51.010;10.366;2023-04-29T06:38:19;98023.13;;;8.03;87.48
14790;BME280;7486;51.010;10.366;2023-04-29T06:41:13;98044.81;;;8.33;86.67
14790;BME280;7486;51.010;10.366;2023-04-29T06:44:08;98039.47;;;8.20;86.08
14790;BME280;7486;51.010;10.366;2023-04-29T06:47:09;98049.81;;;8.15;87.04
14790;BME280;7486;51.010;10.366;2023-04-29T06:50:18;98052.06;;;8.18;86.94
14790;BME280;7486;51.010;10.366;2023-04-29T06:53:04;98055.72;;;8.24;86.42
14790;BME280;7486;51.010;10.366;2023-04-29T06:55:49;98061.78;;;8.17;87.37
14790;BME280;7486;51.010;10.366;2023-04-29T06:58:37;98067.09;;;8.24;87.84
14790;BME280;7486;51.010;10.366;2023-04-29T07:01:24;98071.69;;;8.15;87.55
14790;BME280;7486;51.010;10.366;2023-04-29T07:04:09;98065.84;;;8.20;86.95
14790;BME280;7486;51.010;10.366;2023-04-29T07:06:55;98072.13;;;8.19;88.39
14790;BME280;7486;51.010;10.366;2023-04-29T07:09:40;98078.28;;;8.33;87.42
14790;BME280;7486;51.010;10.366;2023-04-29T07:12:25;98054.84;;;8.10;87.70
14790;BME280;7486;51.010;10.366;2023-04-29T07:15:11;98083.88;;;8.51;86.03
14790;BME280;7486;51.010;10.366;2023-04-29T07:17:57;98082.06;;;8.51;85.72
14790;BME280;7486;51.010;10.366;2023-04-29T07:20:43;98088.19;;;8.58;84.80
14790;BME280;7486;51.010;10.366;2023-04-29T07:23:29;98100.13;;;8.54;84.00
14790;BME280;7486;51.010;10.366;2023-04-29T07:26:15;98088.28;;;8.37;83.81
14790;BME280;7486;51.010;10.366;2023-04-29T07:29:03;98108.56;;;8.37;84.13
14790;BME280;7486;51.010;10.366;2023-04-29T07:31:48;98112.69;;;8.46;84.48
14790;BME280;7486;51.010;10.366;2023-04-29T07:34:33;98109.44;;;8.50;83.70
14790;BME280;7486;51.010;10.366;2023-04-29T07:37:19;98118.16;;;8.44;84.15
14790;BME280;7486;51.010;10.366;2023-04-29T07:40:06;98038.22;;;8.16;82.79
14790;BME280;7486;51.010;10.366;2023-04-29T07:42:51;98122.72;;;8.63;83.20
14790;BME280;7486;51.010;10.366;2023-04-29T07:45:37;98119.28;;;8.63;82.60
14790;BME280;7486;51.010;10.366;2023-04-29T07:48:23;98115.53;;;8.51;83.33
14790;BME280;7486;51.010;10.366;2023-04-29T07:51:12;98124.44;;;8.43;83.26
14790;BME280;7486;51.010;10.366;2023-04-29T07:53:59;98115.59;;;8.23;83.50
14790;BME280;7486;51.010;10.366;2023-04-29T07:56:45;98094.47;;;8.23;83.92
14790;BME280;7486;51.010;10.366;2023-04-29T07:59:31;98150.47;;;8.53;83.67
14790;BME280;7486;51.010;10.366;2023-04-29T08:02:16;98139.09;;;8.46;84.92
14790;BME280;7486;51.010;10.366;2023-04-29T08:05:02;98158.91;;;8.69;85.23
14790;BME280;7486;51.010;10.366;2023-04-29T08:07:50;98157.22;;;8.28;86.96
14790;BME280;7486;51.010;10.366;2023-04-29T08:10:37;98157.97;;;7.94;89.13
14790;BME280;7486;51.010;10.366;2023-04-29T08:13:25;98155.44;;;8.07;89.63
14790;BME280;7486;51.010;10.366;2023-04-29T08:16:11;98172.53;;;8.11;88.92
14790;BME280;7486;51.010;10.366;2023-04-29T08:18:57;98172.38;;;8.19;89.83
14790;BME280;7486;51.010;10.366;2023-04-29T08:21:42;98170.50;;;8.13;89.75
14790;BME280;7486;51.010;10.366;2023-04-29T08:24:27;98185.31;;;8.35;89.44
14790;BME280;7486;51.010;10.366;2023-04-29T08:27:13;98186.31;;;8.34;88.27
14790;BME280;7486;51.010;10.366;2023-04-29T08:29:58;98189.03;;;8.19;89.44
14790;BME280;7486;51.010;10.366;2023-04-29T08:32:44;98183.91;;;8.11;90.15
14790;BME280;7486;51.010;10.366;2023-04-29T08:35:29;98149.78;;;8.10;89.82
14790;BME280;7486;51.010;10.366;2023-04-29T08:38:15;98177.22;;;8.43;88.50
14790;BME280;7486;51.010;10.366;2023-04-29T08:41:00;98186.69;;;8.59;88.51
14790;BME280;7486;51.010;10.366;2023-04-29T08:43:46;98188.25;;;8.53;88.66
14790;BME280;7486;51.010;10.366;2023-04-29T08:46:32;98194.38;;;8.60;88.18
14790;BME280;7486;51.010;10.366;2023-04-29T08:49:18;98202.56;;;8.38;88.17
14790;BME280;7486;51.010;10.366;2023-04-29T08:52:03;98200.06;;;8.57;89.79
14790;BME280;7486;51.010;10.366;2023-04-29T08:54:50;98206.81;;;8.66;87.54
14790;BME280;7486;51.010;10.366;2023-04-29T08:57:36;98208.69;;;8.73;87.23
14790;BME280;7486;51.010;10.366;2023-04-29T09:00:21;98216.63;;;8.73;86.03
14790;BME280;7486;51.010;10.366;2023-04-29T09:06:21;98224.16;;;8.76;84.24
14790;BME280;7486;51.010;10.366;2023-04-29T09:09:06;98224.81;;;8.91;84.62
14790;BME280;7486;51.010;10.366;2023-04-29T09:11:53;98228.44;;;8.49;82.87
14790;BME280;7486;51.010;10.366;2023-04-29T09:14:38;98224.72;;;8.71;84.66
14790;BME280;7486;51.010;10.366;2023-04-29T09:17:45;98219.31;;;8.86;83.28
14790;BME280;7486;51.010;10.366;2023-04-29T09:20:30;98231.25;;;9.16;82.09
14790;BME280;7486;51.010;10.366;2023-04-29T09:23:16;98229.56;;;9.02;82.59
14790;BME280;7486;51.010;10.366;2023-04-29T09:26:01;98228.34;;;9.04;81.71
14790;BME280;7486;51.010;10.366;2023-04-29T09:28:49;98236.81;;;9.28;80.75
14790;BME280;7486;51.010;10.366;2023-04-29T09:31:50;98234.06;;;9.08;80.59
14790;BME280;7486;51.010;10.366;2023-04-29T09:34:35;98214.00;;;9.20;79.83
14790;BME280;7486;51.010;10.366;2023-04-29T09:37:25;98235.47;;;9.38;78.23
14790;BME280;7486;51.010;10.366;2023-04-29T09:40:46;98220.75;;;9.29;78.39
14790;BME280;7486;51.010;10.366;2023-04-29T09:43:43;98248.88;;;9.43;76.03
14790;BME280;7486;51.010;10.366;2023-04-29T09:46:29;98247.28;;;9.49;77.86
14790;BME280;7486;51.010;10.366;2023-04-29T09:49:23;98256.69;;;9.64;77.64
14790;BME280;7486;51.010;10.366;2023-04-29T09:52:14;98258.28;;;9.52;77.29
14790;BME280;7486;51.010;10.366;2023-04-29T09:55:04;98205.19;;;9.47;76.17
14790;BME280;7486;51.010;10.366;2023-04-29T09:57:49;98262.28;;;9.96;76.48
14790;BME280;7486;51.010;10.366;2023-04-29T10:00:35;98262.06;;;10.04;75.08
14790;BME280;7486;51.010;10.366;2023-04-29T10:03:21;98256.91;;;9.76;74.95
14790;BME280;7486;51.010;10.366;2023-04-29T10:06:07;98256.28;;;9.61;75.48
14790;BME280;7486;51.010;10.366;2023-04-29T10:08:52;98272.75;;;9.22;77.18
14790;BME280;7486;51.010;10.366;2023-04-29T10:11:38;98277.97;;;9.43;75.91
14790;BME280;7486;51.010;10.366;2023-04-29T10:14:26;98242.19;;;9.41;74.46
14790;BME280;7486;51.010;10.366;2023-04-29T10:17:23;98226.94;;;9.49;74.55
14790;BME280;7486;51.010;10.366;2023-04-29T10:20:13;98275.41;;;9.69;73.83
14790;BME280;7486;51.010;10.366;2023-04-29T10:22:59;98276.22;;;9.63;74.33
14790;BME280;7486;51.010;10.366;2023-04-29T10:25:45;98280.63;;;9.43;72.97
14790;BME280;7486;51.010;10.366;2023-04-29T10:28:32;98286.69;;;9.37;74.06
14790;BME280;7486;51.010;10.366;2023-04-29T10:31:18;98292.41;;;9.06;74.42
14790;BME280;7486;51.010;10.366;2023-04-29T10:34:04;98250.16;;;8.79;74.65
14790;BME280;7486;51.010;10.366;2023-04-29T10:36:49;98302.97;;;9.41;73.36
14790;BME280;7486;51.010;10.366;2023-04-29T10:39:42;98303.41;;;9.44;73.41
14790;BME280;7486;51.010;10.366;2023-04-29T10:42:38;98300.78;;;9.16;74.76
14790;BME280;7486;51.010;10.366;2023-04-29T10:45:28;98246.81;;;8.63;75.02
14790;BME280;7486;51.010;10.366;2023-04-29T10:48:14;98240.75;;;8.14;76.45
14790;BME280;7486;51.010;10.366;2023-04-29T10:51:00;98305.00;;;8.77;75.35
14790;BME280;7486;51.010;10.366;2023-04-29T10:56:47;98314.94;;;8.75;75.27
14790;BME280;7486;51.010;10.366;2023-04-29T11:02:18;98290.59;;;8.79;75.55
14790;BME280;7486;51.010;10.366;2023-04-29T11:05:08;98314.28;;;8.94;75.38
14790;BME280;7486;51.010;10.366;2023-04-29T11:08:20;98293.66;;;8.83;74.61
14790;BME280;7486;51.010;10.366;2023-04-29T11:11:08;98321.03;;;9.03;73.88
14790;BME280;7486;51.010;10.366;2023-04-29T11:13:53;98325.31;;;8.76;74.54
14790;BME280;7486;51.010;10.366;2023-04-29T11:17:09;98337.63;;;8.90;75.13
14790;BME280;7486;51.010;10.366;2023-04-29T11:19:54;98333.72;;;8.86;75.17
14790;BME280;7486;51.010;10.366;2023-04-29T11:22:41;98334.91;;;9.11;74.20
14790;BME280;7486;51.010;10.366;2023-04-29T11:25:27;98337.31;;;9.06;73.79
14790;BME280;7486;51.010;10.366;2023-04-29T11:28:13;98341.31;;;8.96;72.65
14790;BME280;7486;51.010;10.366;2023-04-29T11:30:59;98348.44;;;9.02;74.23
14790;BME280;7486;51.010;10.366;2023-04-29T11:33:45;98340.72;;;8.73;74.69
14790;BME280;7486;51.010;10.366;2023-04-29T11:36:32;98352.69;;;8.68;75.49
14790;BME280;7486;51.010;10.366;2023-04-29T11:39:17;98348.06;;;9.05;74.28
14790;BME280;7486;51.010;10.366;2023-04-29T11:42:06;98357.94;;;8.90;74.68
14790;BME280;7486;51.010;10.366;2023-04-29T11:44:53;98361.75;;;8.59;76.64
14790;BME280;7486;51.010;10.366;2023-04-29T11:47:44;98360.50;;;8.55;75.92
14790;BME280;7486;51.010;10.366;2023-04-29T11:50:30;98367.63;;;8.83;74.49
14790;BME280;7486;51.010;10.366;2023-04-29T11:53:18;98340.38;;;8.33;75.55
14790;BME280;7486;51.010;10.366;2023-04-29T11:56:04;98368.00;;;8.01;76.89
14790;BME280;7486;51.010;10.366;2023-04-29T11:58:53;98369.16;;;8.28;76.94
14790;BME280;7486;51.010;10.366;2023-04-29T12:01:40;98352.69;;;8.26;76.11
14790;BME280;7486;51.010;10.366;2023-04-29T12:04:26;98362.75;;;8.37;76.67
14790;BME280;7486;51.010;10.366;2023-04-29T12:07:15;98388.88;;;8.75;74.42
14790;BME280;7486;51.010;10.366;2023-04-29T12:10:02;98343.44;;;8.58;74.90
14790;BME280;7486;51.010;10.366;2023-04-29T12:12:47;98391.72;;;8.73;72.66
14790;BME280;7486;51.010;10.366;2023-04-29T12:15:33;98393.91;;;8.48;73.53
14790;BME280;7486;51.010;10.366;2023-04-29T12:18:19;98361.69;;;8.32;73.47
14790;BME280;7486;51.010;10.366;2023-04-29T12:21:05;98390.53;;;8.76;74.05
14790;BME280;7486;51.010;10.366;2023-04-29T12:23:50;98391.41;;;8.61;72.11
14790;BME280;7486;51.010;10.366;2023-04-29T12:26:38;98375.88;;;8.52;73.06
14790;BME280;7486;51.010;10.366;2023-04-29T12:29:25;98366.66;;;8.62;73.38
14790;BME280;7486;51.010;10.366;2023-04-29T12:32:20;98397.00;;;8.73;72.45
14790;BME280;7486;51.010;10.366;2023-04-29T12:35:13;98395.53;;;8.92;71.77
14790;BME280;7486;51.010;10.366;2023-04-29T12:37:59;98403.56;;;8.56;70.79
14790;BME280;7486;51.010;10.366;2023-04-29T12:40:44;98392.78;;;8.79;70.31
14790;BME280;7486;51.010;10.366;2023-04-29T12:43:31;98399.06;;;8.78;70.42
14790;BME280;7486;51.010;10.366;2023-04-29T12:46:19;98408.13;;;8.68;70.47
14790;BME280;7486;51.010;10.366;2023-04-29T12:49:05;98403.72;;;8.76;70.40
14790;BME280;7486;51.010;10.366;2023-04-29T12:51:50;98400.44;;;8.73;70.08
14790;BME280;7486;51.010;10.366;2023-04-29T12:54:36;98393.53;;;8.94;68.65
14790;BME280;7486;51.010;10.366;2023-04-29T12:57:22;98398.56;;;9.16;69.81
14790;BME280;7486;51.010;10.366;2023-04-29T13:00:08;98396.97;;;9.50;69.24
14790;BME280;7486;51.010;10.366;2023-04-29T13:02:54;98368.25;;;9.81;68.34
14790;BME280;7486;51.010;10.366;2023-04-29T13:05:39;98397.03;;;10.10;67.06
14790;BME280;7486;51.010;10.366;2023-04-29T13:08:25;98381.75;;;9.93;64.40
14790;BME280;7486;51.010;10.366;2023-04-29T13:11:10;98386.69;;;10.15;64.97
14790;BME280;7486;51.010;10.366;2023-04-29T13:13:55;98396.38;;;10.56;64.52
14790;BME280;7486;51.010;10.366;2023-04-29T13:16:41;98399.09;;;10.89;63.75
14790;BME280;7486;51.010;10.366;2023-04-29T13:19:27;98401.13;;;11.19;61.75
14790;BME280;7486;51.010;10.366;2023-04-29T13:22:32;98398.44;;;11.39;62.68
14790;BME280;7486;51.010;10.366;2023-04-29T13:25:17;98394.13;;;11.38;60.93
14790;BME280;7486;51.010;10.366;2023-04-29T13:28:02;98391.13;;;11.02;62.90
14790;BME280;7486;51.010;10.366;2023-04-29T13:30:49;98402.94;;;11.12;61.80
14790;BME280;7486;51.010;10.366;2023-04-29T13:33:34;98404.97;;;11.17;61.53
14790;BME280;7486;51.010;10.366;2023-04-29T13:36:23;98406.81;;;11.30;61.91
14790;BME280;7486;51.010;10.366;2023-04-29T13:39:09;98412.53;;;11.33;62.30
14790;BME280;7486;51.010;10.366;2023-04-29T13:41:54;98421.50;;;11.06;60.38
14790;BME280;7486;51.010;10.366;2023-04-29T13:44:43;98417.81;;;10.67;60.42
14790;BME280;7486;51.010;10.366;2023-04-29T13:47:37;98416.63;;;10.16;60.71
14790;BME280;7486;51.010;10.366;2023-04-29T13:50:42;98414.78;;;8.86;64.88
14790;BME280;7486;51.010;10.366;2023-04-29T13:53:48;98427.47;;;8.54;67.34
14790;BME280;7486;51.010;10.366;2023-04-29T13:56:36;98437.03;;;8.19;68.19
14790;BME280;7486;51.010;10.366;2023-04-29T13:59:24;98418.31;;;8.71;66.93
14790;BME280;7486;51.010;10.366;2023-04-29T14:02:18;98429.81;;;8.85;66.19
14790;BME280;7486;51.010;10.366;2023-04-29T14:05:06;98426.28;;;8.99;66.18
14790;BME280;7486;51.010;10.366;2023-04-29T14:07:52;98427.06;;;9.21;65.62
14790;BME280;7486;51.010;10.366;2023-04-29T14:10:37;98427.88;;;9.49;65.03
14790;BME280;7486;51.010;10.366;2023-04-29T14:13:22;98423.41;;;9.50;64.77
14790;BME280;7486;51.010;10.366;2023-04-29T14:16:08;98417.75;;;9.94;63.13
14790;BME280;7486;51.010;10.366;2023-04-29T14:18:54;98424.50;;;9.96;62.99
14790;BME280;7486;51.010;10.366;2023-04-29T14:21:39;98422.66;;;9.62;61.56
14790;BME280;7486;51.010;10.366;2023-04-29T14:24:25;98431.59;;;9.27;62.32
14790;BME280;7486;51.010;10.366;2023-04-29T14:27:10;98437.38;;;9.16;63.44
14790;BME280;7486;51.010;10.366;2023-04-29T14:29:55;98448.13;;;9.36;63.31
14790;BME280;7486;51.010;10.366;2023-04-29T14:32:41;98458.44;;;9.31;62.55
14790;BME280;7486;51.010;10.366;2023-04-29T14:35:26;98449.66;;;9.23;63.84
14790;BME280;7486;51.010;10.366;2023-04-29T14:38:11;98448.06;;;9.57;62.82
14790;BME280;7486;51.010;10.366;2023-04-29T14:40:56;98454.66;;;9.67;62.36
14790;BME280;7486;51.010;10.366;2023-04-29T14:43:42;98455.44;;;9.61;63.27
14790;BME280;7486;51.010;10.366;2023-04-29T14:46:28;98442.69;;;9.71;63.71
14790;BME280;7486;51.010;10.366;2023-04-29T14:49:13;98447.25;;;9.91;63.75
14790;BME280;7486;51.010;10.366;2023-04-29T14:51:58;98460.94;;;10.48;60.65
14790;BME280;7486;51.010;10.366;2023-04-29T14:54:44;98457.56;;;10.81;59.51
14790;BME280;7486;51.010;10.366;2023-04-29T14:57:29;98417.81;;;10.67;60.05
14790;BME280;7486;51.010;10.366;2023-04-29T15:00:15;98469.22;;;11.06;58.87
14790;BME280;7486;51.010;10.366;2023-04-29T15:03:00;98469.63;;;11.16;58.64
14790;BME280;7486;51.010;10.366;2023-04-29T15:05:49;98474.94;;;11.22;59.19
14790;BME280;7486;51.010;10.366;2023-04-29T15:08:34;98454.34;;;10.31;60.80
14790;BME280;7486;51.010;10.366;2023-04-29T15:11:20;98431.53;;;10.30;61.78
14790;BME280;7486;51.010;10.366;2023-04-29T15:14:05;98479.72;;;10.53;60.28